Startpagina
METAR-TAF:

METAR-TAF

Vliegvelden :

London Biggin Hill Airport

Londen Biggin Hill, Engeland

breedte: 51-19N, lengte: 000-02E, hoogte: 183 m

Actueel weer

Dit bericht is 38 minuten geleden gemaakt, om 19:50 UTC
Wind 11 kt uit het noorden
Temperatuur 13°C
Vochtigheid 72%
Druk 1007 hPa
Zicht 10 km of meer
Verspreide wolken op 3500 ft

METAR: EGKB 031950Z 36011KT 9999 SCT035 13/08 Q1007

Tijdstip: 21:28 (20:28 UTC)

Verwachting

Dit bericht is 6 uur en het 22 minuten geleden gemaakt, om 14:06 UTC
Verwachting geldig van 03 om 15 UTC tot 03 om 22 UTC
Wind 9 kt uit het noorden
Zicht 10 km of meer
Weinig wolken op 3000 ft
Kans 40% :
Tijdelijke
van 03 om 15 UTC tot 03 om 22 UTC
Zicht: 8000 m
Gebroken wolken op 3000 ft
lichte regen
Kans 30% :
Tijdelijke
van 03 om 19 UTC tot 03 om 22 UTC
Gebroken wolken op 1400 ft
regen

TAF: EGKB 031406Z 0315/0322 36009KT 9999 FEW030 PROB40 TEMPO 0315/0322 8000 -RA BKN030 PROB30 TEMPO 0319/0322 RA BKN014

Waarnemingen en weersverwachtingen van meer dan 4000 vliegvelden (METAR en TAF).

De beschikbare stations zijn de gele en rode punten op de kaart.

Ga met uw muis naar het station om de naam te zien.

Klik dan om waarnemingen en weersverwachtingen te zien.

kaart wijzigen: klik op de groene knoppen met een zwart kruis om in te zoomen, op de groene knop met een streepje om uit te zoomen of op de groene pijlen voor aangrenzende kaarten.


METAR-TAF: